Terminal Aerodrome Forecast
Issued by NWS

Home | Current Version | Previous Version | Text Only | Print | Product List | Glossary Off
Versions: 1 2 3 4 5 6 7 8 9 10 11 12

000
FTUS43 KICT 181700
TAFSLN
TAF
KSLN 181725Z 1818/1918 18016G23KT P6SM SKC
     FM190100 16013KT P6SM SKC
     FM191500 19023G30KT P6SM BKN250=

USA.gov is the U.S. government's official web portal to all federal, state and local government web resources and services.